sensor_id;sensor_type;location;lat;lon;timestamp;pressure;altitude;pressure_sealevel;temperature;humidity
40205;BME280;26963;42.666;23.366;2023-04-10T00:02:12;95066.81;;;9.27;53.47
40205;BME280;26963;42.666;23.366;2023-04-10T00:04:38;95064.19;;;9.22;53.25
40205;BME280;26963;42.666;23.366;2023-04-10T00:07:03;95054.38;;;9.12;53.29
40205;BME280;26963;42.666;23.366;2023-04-10T00:09:29;95051.19;;;9.10;52.32
40205;BME280;26963;42.666;23.366;2023-04-10T00:11:55;95029.66;;;8.96;52.06
40205;BME280;26963;42.666;23.366;2023-04-10T00:14:21;94993.63;;;8.64;52.20
40205;BME280;26963;42.666;23.366;2023-04-10T00:16:49;95054.91;;;9.09;51.02
40205;BME280;26963;42.666;23.366;2023-04-10T00:19:15;95045.44;;;8.93;50.40
40205;BME280;26963;42.666;23.366;2023-04-10T00:21:41;95037.22;;;8.89;49.97
40205;BME280;26963;42.666;23.366;2023-04-10T00:24:07;95014.94;;;8.70;48.91
40205;BME280;26963;42.666;23.366;2023-04-10T00:26:34;94981.16;;;8.55;47.94
40205;BME280;26963;42.666;23.366;2023-04-10T00:29:01;95050.78;;;8.93;47.77
40205;BME280;26963;42.666;23.366;2023-04-10T00:31:26;95000.59;;;8.60;46.48
40205;BME280;26963;42.666;23.366;2023-04-10T00:33:52;95038.28;;;8.88;47.63
40205;BME280;26963;42.666;23.366;2023-04-10T00:36:18;95034.31;;;8.86;46.82
40205;BME280;26963;42.666;23.366;2023-04-10T00:38:43;94989.66;;;8.62;46.80
40205;BME280;26963;42.666;23.366;2023-04-10T00:41:09;95039.78;;;9.00;46.47
40205;BME280;26963;42.666;23.366;2023-04-10T00:43:35;94993.84;;;8.73;46.15
40205;BME280;26963;42.666;23.366;2023-04-10T00:46:01;95044.56;;;9.03;45.75
40205;BME280;26963;42.666;23.366;2023-04-10T00:48:26;95029.38;;;9.03;45.47
40205;BME280;26963;42.666;23.366;2023-04-10T00:50:52;95000.41;;;8.86;46.13
40205;BME280;26963;42.666;23.366;2023-04-10T00:53:18;95017.19;;;8.92;46.43
40205;BME280;26963;42.666;23.366;2023-04-10T00:55:44;94996.25;;;8.70;46.71
40205;BME280;26963;42.666;23.366;2023-04-10T00:58:09;95025.69;;;8.94;47.22
40205;BME280;26963;42.666;23.366;2023-04-10T01:00:39;94972.81;;;8.67;47.54
40205;BME280;26963;42.666;23.366;2023-04-10T01:03:08;94948.41;;;8.49;48.86
40205;BME280;26963;42.666;23.366;2023-04-10T01:06:24;94922.88;;;8.38;49.62
40205;BME280;26963;42.666;23.366;2023-04-10T01:11:20;95018.50;;;9.24;51.06
40205;BME280;26963;42.666;23.366;2023-04-10T01:16:45;95018.16;;;9.30;52.59
40205;BME280;26963;42.666;23.366;2023-04-10T01:19:22;94972.56;;;8.97;53.36
40205;BME280;26963;42.666;23.366;2023-04-10T01:21:51;94963.25;;;8.95;54.08
40205;BME280;26963;42.666;23.366;2023-04-10T01:29:19;94999.63;;;9.15;55.11
40205;BME280;26963;42.666;23.366;2023-04-10T01:31:51;94992.16;;;9.12;55.12
40205;BME280;26963;42.666;23.366;2023-04-10T01:34:23;94951.31;;;8.87;55.28
40205;BME280;26963;42.666;23.366;2023-04-10T01:36:56;95017.09;;;9.32;55.34
40205;BME280;26963;42.666;23.366;2023-04-10T01:39:25;94957.91;;;8.95;55.21
40205;BME280;26963;42.666;23.366;2023-04-10T01:41:57;95014.91;;;9.39;54.60
40205;BME280;26963;42.666;23.366;2023-04-10T01:44:28;95018.66;;;9.38;53.35
40205;BME280;26963;42.666;23.366;2023-04-10T01:46:56;95008.75;;;9.38;51.94
40205;BME280;26963;42.666;23.366;2023-04-10T01:49:24;95001.56;;;9.39;51.47
40205;BME280;26963;42.666;23.366;2023-04-10T01:51:50;94973.41;;;9.22;51.03
40205;BME280;26963;42.666;23.366;2023-04-10T01:54:18;95024.34;;;9.55;50.76
40205;BME280;26963;42.666;23.366;2023-04-10T01:56:45;95028.56;;;9.61;50.45
40205;BME280;26963;42.666;23.366;2023-04-10T01:59:10;95009.44;;;9.49;50.39
40205;BME280;26963;42.666;23.366;2023-04-10T02:01:36;94917.09;;;8.94;50.09
40205;BME280;26963;42.666;23.366;2023-04-10T02:04:02;95021.34;;;9.62;49.75
40205;BME280;26963;42.666;23.366;2023-04-10T02:09:46;95024.78;;;9.62;49.66
40205;BME280;26963;42.666;23.366;2023-04-10T02:12:04;95001.34;;;9.59;49.96
40205;BME280;26963;42.666;23.366;2023-04-10T02:14:31;94988.53;;;9.56;50.01
40205;BME280;26963;42.666;23.366;2023-04-10T02:17:01;94999.91;;;9.67;49.90
40205;BME280;26963;42.666;23.366;2023-04-10T02:19:30;94985.25;;;9.65;50.67
40205;BME280;26963;42.666;23.366;2023-04-10T02:21:57;94993.19;;;9.70;49.88
40205;BME280;26963;42.666;23.366;2023-04-10T02:24:26;94957.72;;;9.40;49.96
40205;BME280;26963;42.666;23.366;2023-04-10T02:26:52;94983.88;;;9.67;49.79
40205;BME280;26963;42.666;23.366;2023-04-10T02:29:18;94991.06;;;9.72;50.55
40205;BME280;26963;42.666;23.366;2023-04-10T02:31:45;94988.44;;;9.67;49.77
40205;BME280;26963;42.666;23.366;2023-04-10T02:34:11;94988.09;;;9.73;49.99
40205;BME280;26963;42.666;23.366;2023-04-10T02:36:38;94970.22;;;9.69;49.75
40205;BME280;26963;42.666;23.366;2023-04-10T02:39:04;94868.38;;;9.08;48.99
40205;BME280;26963;42.666;23.366;2023-04-10T02:41:32;94976.63;;;9.73;49.05
40205;BME280;26963;42.666;23.366;2023-04-10T02:43:58;94970.22;;;9.69;48.79
40205;BME280;26963;42.666;23.366;2023-04-10T02:46:24;94969.28;;;9.59;48.87
40205;BME280;26963;42.666;23.366;2023-04-10T02:48:51;94961.59;;;9.53;48.52
40205;BME280;26963;42.666;23.366;2023-04-10T02:51:17;94967.16;;;9.56;49.00
40205;BME280;26963;42.666;23.366;2023-04-10T02:53:42;94967.97;;;9.57;49.34
40205;BME280;26963;42.666;23.366;2023-04-10T02:56:08;94944.88;;;9.42;49.00
40205;BME280;26963;42.666;23.366;2023-04-10T02:58:36;94957.78;;;9.35;49.90
40205;BME280;26963;42.666;23.366;2023-04-10T03:01:01;94958.66;;;9.30;50.71
40205;BME280;26963;42.666;23.366;2023-04-10T03:03:30;94958.53;;;9.16;51.19
40205;BME280;26963;42.666;23.366;2023-04-10T03:05:55;94961.84;;;9.03;51.94
40205;BME280;26963;42.666;23.366;2023-04-10T03:08:21;94958.78;;;8.85;52.48
40205;BME280;26963;42.666;23.366;2023-04-10T03:10:46;94897.81;;;8.39;53.06
40205;BME280;26963;42.666;23.366;2023-04-10T03:13:15;94939.72;;;8.68;53.26
40205;BME280;26963;42.666;23.366;2023-04-10T03:15:41;94749.28;;;7.41;52.28
40205;BME280;26963;42.666;23.366;2023-04-10T03:18:07;94959.16;;;8.73;51.53
40205;BME280;26963;42.666;23.366;2023-04-10T03:20:35;94957.28;;;8.74;51.81
40205;BME280;26963;42.666;23.366;2023-04-10T03:23:01;94903.69;;;8.36;51.93
40205;BME280;26963;42.666;23.366;2023-04-10T03:25:33;94918.06;;;8.35;52.02
40205;BME280;26963;42.666;23.366;2023-04-10T03:27:58;94948.28;;;8.64;51.67
40205;BME280;26963;42.666;23.366;2023-04-10T03:30:24;94912.19;;;8.38;51.62
40205;BME280;26963;42.666;23.366;2023-04-10T03:32:49;94911.38;;;8.37;52.12
40205;BME280;26963;42.666;23.366;2023-04-10T03:35:15;94964.84;;;8.61;52.46
40205;BME280;26963;42.666;23.366;2023-04-10T03:37:40;94971.25;;;8.60;52.51
40205;BME280;26963;42.666;23.366;2023-04-10T03:40:07;94962.28;;;8.46;52.85
40205;BME280;26963;42.666;23.366;2023-04-10T03:42:34;94962.56;;;8.39;54.16
40205;BME280;26963;42.666;23.366;2023-04-10T03:44:59;94970.94;;;8.27;55.13
40205;BME280;26963;42.666;23.366;2023-04-10T03:47:31;94973.38;;;8.19;56.18
40205;BME280;26963;42.666;23.366;2023-04-10T03:49:57;94939.72;;;7.83;56.58
40205;BME280;26963;42.666;23.366;2023-04-10T03:52:26;94957.84;;;7.81;56.49
40205;BME280;26963;42.666;23.366;2023-04-10T03:54:53;94977.00;;;7.83;56.37
40205;BME280;26963;42.666;23.366;2023-04-10T03:57:18;94975.44;;;7.77;58.38
40205;BME280;26963;42.666;23.366;2023-04-10T03:59:48;94922.91;;;7.27;58.86
40205;BME280;26963;42.666;23.366;2023-04-10T04:02:14;94996.00;;;7.61;59.90
40205;BME280;26963;42.666;23.366;2023-04-10T04:04:40;94978.75;;;7.43;60.45
40205;BME280;26963;42.666;23.366;2023-04-10T04:07:05;94986.19;;;7.41;60.75
40205;BME280;26963;42.666;23.366;2023-04-10T04:09:31;94996.34;;;7.39;61.28
40205;BME280;26963;42.666;23.366;2023-04-10T04:11:56;94921.91;;;6.92;61.43
40205;BME280;26963;42.666;23.366;2023-04-10T04:14:22;94971.31;;;7.24;61.54
40205;BME280;26963;42.666;23.366;2023-04-10T04:16:48;95005.34;;;7.53;61.37
40205;BME280;26963;42.666;23.366;2023-04-10T04:19:14;94990.97;;;7.49;61.08
40205;BME280;26963;42.666;23.366;2023-04-10T04:21:40;94985.13;;;7.47;61.25
40205;BME280;26963;42.666;23.366;2023-04-10T04:24:05;94990.16;;;7.54;60.85
40205;BME280;26963;42.666;23.366;2023-04-10T04:26:31;95001.56;;;7.70;60.90
40205;BME280;26963;42.666;23.366;2023-04-10T04:28:57;95005.22;;;7.84;60.50
40205;BME280;26963;42.666;23.366;2023-04-10T04:31:22;94989.75;;;7.91;60.26
40205;BME280;26963;42.666;23.366;2023-04-10T04:33:48;94840.44;;;7.12;59.11
40205;BME280;26963;42.666;23.366;2023-04-10T04:36:14;94982.19;;;8.14;58.65
40205;BME280;26963;42.666;23.366;2023-04-10T04:38:39;94996.47;;;8.33;58.36
40205;BME280;26963;42.666;23.366;2023-04-10T04:41:05;94982.63;;;8.31;57.72
40205;BME280;26963;42.666;23.366;2023-04-10T04:43:30;95013.72;;;8.52;58.06
40205;BME280;26963;42.666;23.366;2023-04-10T04:45:56;94870.53;;;7.73;57.69
40205;BME280;26963;42.666;23.366;2023-04-10T04:48:22;94984.16;;;8.43;57.34
40205;BME280;26963;42.666;23.366;2023-04-10T04:50:47;95008.84;;;8.64;57.37
40205;BME280;26963;42.666;23.366;2023-04-10T04:53:13;94957.56;;;8.32;57.29
40205;BME280;26963;42.666;23.366;2023-04-10T04:55:38;94940.00;;;8.26;57.76
40205;BME280;26963;42.666;23.366;2023-04-10T04:58:04;95024.50;;;8.76;57.38
40205;BME280;26963;42.666;23.366;2023-04-10T05:00:29;94936.84;;;8.19;56.99
40205;BME280;26963;42.666;23.366;2023-04-10T05:02:55;94999.00;;;8.59;57.66
40205;BME280;26963;42.666;23.366;2023-04-10T05:05:20;95014.06;;;8.79;57.56
40205;BME280;26963;42.666;23.366;2023-04-10T05:07:46;94996.22;;;8.75;56.79
40205;BME280;26963;42.666;23.366;2023-04-10T05:10:11;94939.88;;;8.42;56.72
40205;BME280;26963;42.666;23.366;2023-04-10T05:12:37;94779.13;;;7.38;56.43
40205;BME280;26963;42.666;23.366;2023-04-10T05:15:03;95014.88;;;9.09;56.26
40205;BME280;26963;42.666;23.366;2023-04-10T05:17:28;95008.19;;;9.12;56.08
40205;BME280;26963;42.666;23.366;2023-04-10T05:19:54;95025.06;;;9.37;55.73
40205;BME280;26963;42.666;23.366;2023-04-10T05:22:20;95000.97;;;9.42;54.96
40205;BME280;26963;42.666;23.366;2023-04-10T05:24:45;94937.94;;;9.17;54.40
40205;BME280;26963;42.666;23.366;2023-04-10T05:27:11;95011.22;;;9.83;54.01
40205;BME280;26963;42.666;23.366;2023-04-10T05:29:36;95000.91;;;9.95;53.31
40205;BME280;26963;42.666;23.366;2023-04-10T05:32:02;94992.84;;;10.01;52.63
40205;BME280;26963;42.666;23.366;2023-04-10T05:34:30;95022.38;;;10.34;52.53
40205;BME280;26963;42.666;23.366;2023-04-10T05:36:56;95004.16;;;10.36;52.08
40205;BME280;26963;42.666;23.366;2023-04-10T05:39:21;95010.59;;;10.54;51.15
40205;BME280;26963;42.666;23.366;2023-04-10T05:41:47;95018.66;;;10.73;50.87
40205;BME280;26963;42.666;23.366;2023-04-10T05:44:12;95030.28;;;10.82;50.52
40205;BME280;26963;42.666;23.366;2023-04-10T05:46:38;95022.44;;;11.05;50.14
40205;BME280;26963;42.666;23.366;2023-04-10T05:49:36;95004.91;;;11.13;49.33
40205;BME280;26963;42.666;23.366;2023-04-10T05:52:02;95021.91;;;11.36;48.85
40205;BME280;26963;42.666;23.366;2023-04-10T05:54:34;95019.56;;;11.48;48.35
40205;BME280;26963;42.666;23.366;2023-04-10T05:57:00;95015.91;;;11.58;49.11
40205;BME280;26963;42.666;23.366;2023-04-10T05:59:26;95022.94;;;11.68;48.40
40205;BME280;26963;42.666;23.366;2023-04-10T06:01:51;95026.66;;;11.72;48.06
40205;BME280;26963;42.666;23.366;2023-04-10T06:04:17;95021.28;;;11.72;47.97
40205;BME280;26963;42.666;23.366;2023-04-10T06:06:43;94968.16;;;11.46;47.94
40205;BME280;26963;42.666;23.366;2023-04-10T06:09:08;95005.41;;;11.62;47.82
40205;BME280;26963;42.666;23.366;2023-04-10T06:11:34;95025.16;;;11.66;48.16
40205;BME280;26963;42.666;23.366;2023-04-10T06:14:00;94966.75;;;11.35;48.03
40205;BME280;26963;42.666;23.366;2023-04-10T06:16:25;95021.56;;;11.70;47.84
40205;BME280;26963;42.666;23.366;2023-04-10T06:18:51;95006.59;;;11.69;47.49
40205;BME280;26963;42.666;23.366;2023-04-10T06:21:18;94973.25;;;11.62;47.25
40205;BME280;26963;42.666;23.366;2023-04-10T06:23:44;95008.00;;;11.95;46.84
40205;BME280;26963;42.666;23.366;2023-04-10T06:26:09;95002.53;;;12.00;46.86
40205;BME280;26963;42.666;23.366;2023-04-10T06:28:35;95022.00;;;12.19;46.38
40205;BME280;26963;42.666;23.366;2023-04-10T06:31:01;95020.50;;;12.13;46.16
40205;BME280;26963;42.666;23.366;2023-04-10T06:33:30;95000.53;;;11.91;46.03
40205;BME280;26963;42.666;23.366;2023-04-10T06:35:56;95011.75;;;11.94;45.68
40205;BME280;26963;42.666;23.366;2023-04-10T06:38:21;94834.16;;;10.63;46.42
40205;BME280;26963;42.666;23.366;2023-04-10T06:40:50;95014.63;;;11.83;46.71
40205;BME280;26963;42.666;23.366;2023-04-10T06:43:15;95006.88;;;11.68;46.92
40205;BME280;26963;42.666;23.366;2023-04-10T06:45:41;94836.19;;;10.38;47.30
40205;BME280;26963;42.666;23.366;2023-04-10T06:48:07;95008.97;;;11.57;47.29
40205;BME280;26963;42.666;23.366;2023-04-10T06:50:32;94821.38;;;10.26;47.25
40205;BME280;26963;42.666;23.366;2023-04-10T06:53:01;94986.09;;;11.32;47.09
40205;BME280;26963;42.666;23.366;2023-04-10T06:55:26;95039.72;;;11.59;47.19
40205;BME280;26963;42.666;23.366;2023-04-10T06:57:52;95018.47;;;11.49;47.22
40205;BME280;26963;42.666;23.366;2023-04-10T07:00:18;95032.19;;;11.62;47.37
40205;BME280;26963;42.666;23.366;2023-04-10T07:02:44;94975.06;;;11.19;47.64
40205;BME280;26963;42.666;23.366;2023-04-10T07:05:10;95034.56;;;11.63;47.34
40205;BME280;26963;42.666;23.366;2023-04-10T07:07:35;95035.34;;;11.64;47.23
40205;BME280;26963;42.666;23.366;2023-04-10T07:10:01;95003.47;;;11.48;46.85
40205;BME280;26963;42.666;23.366;2023-04-10T07:12:27;95027.50;;;11.53;47.16
40205;BME280;26963;42.666;23.366;2023-04-10T07:14:55;95022.25;;;11.48;46.70
40205;BME280;26963;42.666;23.366;2023-04-10T07:17:21;95020.81;;;11.37;47.29
40205;BME280;26963;42.666;23.366;2023-04-10T07:19:46;95033.78;;;11.30;47.67
40205;BME280;26963;42.666;23.366;2023-04-10T07:22:12;95018.41;;;11.21;48.27
40205;BME280;26963;42.666;23.366;2023-04-10T07:24:39;95030.91;;;11.26;47.92
40205;BME280;26963;42.666;23.366;2023-04-10T07:27:04;95017.00;;;11.10;48.08
40205;BME280;26963;42.666;23.366;2023-04-10T07:29:30;94959.78;;;10.73;47.97
40205;BME280;26963;42.666;23.366;2023-04-10T07:31:56;95047.19;;;11.30;47.43
40205;BME280;26963;42.666;23.366;2023-04-10T07:34:21;95018.00;;;11.14;47.35
40205;BME280;26963;42.666;23.366;2023-04-10T07:36:47;95009.88;;;11.19;47.82
40205;BME280;26963;42.666;23.366;2023-04-10T07:39:12;95035.34;;;11.64;47.29
40205;BME280;26963;42.666;23.366;2023-04-10T07:41:38;95043.72;;;11.76;46.33
40205;BME280;26963;42.666;23.366;2023-04-10T07:44:04;94977.75;;;11.33;46.42
40205;BME280;26963;42.666;23.366;2023-04-10T07:46:32;95040.53;;;11.74;46.66
40205;BME280;26963;42.666;23.366;2023-04-10T07:49:00;95040.31;;;11.84;46.47
40205;BME280;26963;42.666;23.366;2023-04-10T07:51:26;95019.91;;;11.88;46.23
40205;BME280;26963;42.666;23.366;2023-04-10T07:53:53;95002.22;;;11.87;45.31
40205;BME280;26963;42.666;23.366;2023-04-10T07:56:20;95025.66;;;11.96;45.59
40205;BME280;26963;42.666;23.366;2023-04-10T07:58:47;95040.56;;;12.02;45.92
40205;BME280;26963;42.666;23.366;2023-04-10T08:01:13;94971.84;;;11.50;46.05
40205;BME280;26963;42.666;23.366;2023-04-10T08:03:40;95023.06;;;11.77;46.30
40205;BME280;26963;42.666;23.366;2023-04-10T08:06:07;95022.06;;;11.72;46.74
40205;BME280;26963;42.666;23.366;2023-04-10T08:08:42;95030.22;;;11.81;46.12
40205;BME280;26963;42.666;23.366;2023-04-10T08:11:27;95037.59;;;11.89;46.60
40205;BME280;26963;42.666;23.366;2023-04-10T08:13:55;95047.28;;;11.85;46.76
40205;BME280;26963;42.666;23.366;2023-04-10T08:16:25;94899.94;;;10.97;46.59
40205;BME280;26963;42.666;23.366;2023-04-10T08:18:53;95035.97;;;11.88;46.59
40205;BME280;26963;42.666;23.366;2023-04-10T08:21:20;95036.31;;;12.01;46.29
40205;BME280;26963;42.666;23.366;2023-04-10T08:23:46;95029.84;;;12.02;46.62
40205;BME280;26963;42.666;23.366;2023-04-10T08:26:12;95016.94;;;12.04;46.08
40205;BME280;26963;42.666;23.366;2023-04-10T08:28:38;95030.03;;;12.19;46.16
40205;BME280;26963;42.666;23.366;2023-04-10T08:31:03;95027.66;;;12.04;46.58
40205;BME280;26963;42.666;23.366;2023-04-10T08:33:29;95011.75;;;11.94;46.85
40205;BME280;26963;42.666;23.366;2023-04-10T08:35:55;95013.34;;;11.81;47.23
40205;BME280;26963;42.666;23.366;2023-04-10T08:38:21;95027.03;;;11.79;47.31
40205;BME280;26963;42.666;23.366;2023-04-10T08:40:49;94972.94;;;11.49;47.51
40205;BME280;26963;42.666;23.366;2023-04-10T08:43:15;95019.28;;;11.91;46.51
40205;BME280;26963;42.666;23.366;2023-04-10T08:45:41;95007.06;;;11.85;46.53
40205;BME280;26963;42.666;23.366;2023-04-10T08:48:07;95034.78;;;11.95;46.53
40205;BME280;26963;42.666;23.366;2023-04-10T08:50:39;94983.53;;;11.54;46.51
40205;BME280;26963;42.666;23.366;2023-04-10T08:53:12;95029.53;;;11.75;46.87
40205;BME280;26963;42.666;23.366;2023-04-10T08:55:39;95035.97;;;11.74;46.91
40205;BME280;26963;42.666;23.366;2023-04-10T08:58:05;95014.53;;;11.61;46.82
40205;BME280;26963;42.666;23.366;2023-04-10T09:00:35;95033.09;;;11.71;46.43
40205;BME280;26963;42.666;23.366;2023-04-10T09:03:08;94983.84;;;11.39;46.75
40205;BME280;26963;42.666;23.366;2023-04-10T09:05:36;94997.72;;;11.41;46.49
40205;BME280;26963;42.666;23.366;2023-04-10T09:08:03;95004.75;;;11.37;46.93
40205;BME280;26963;42.666;23.366;2023-04-10T09:10:29;95028.38;;;11.49;45.58
40205;BME280;26963;42.666;23.366;2023-04-10T09:12:54;95015.28;;;11.47;46.04
40205;BME280;26963;42.666;23.366;2023-04-10T09:15:21;94994.34;;;11.35;45.40
40205;BME280;26963;42.666;23.366;2023-04-10T09:18:01;95020.44;;;11.43;45.67
40205;BME280;26963;42.666;23.366;2023-04-10T09:20:31;95019.22;;;11.36;46.04
40205;BME280;26963;42.666;23.366;2023-04-10T09:22:56;94959.03;;;11.00;46.62
40205;BME280;26963;42.666;23.366;2023-04-10T09:25:36;94909.31;;;10.80;46.02
40205;BME280;26963;42.666;23.366;2023-04-10T09:28:08;94956.59;;;11.04;46.67
40205;BME280;26963;42.666;23.366;2023-04-10T09:30:39;95012.28;;;11.35;46.50
40205;BME280;26963;42.666;23.366;2023-04-10T09:33:25;95001.97;;;11.28;46.46
40205;BME280;26963;42.666;23.366;2023-04-10T09:36:00;94975.03;;;11.05;46.94
40205;BME280;26963;42.666;23.366;2023-04-10T09:38:26;94987.63;;;11.05;46.63
40205;BME280;26963;42.666;23.366;2023-04-10T09:40:51;94990.00;;;11.06;47.11
40205;BME280;26963;42.666;23.366;2023-04-10T09:45:47;94941.38;;;10.99;47.31
40205;BME280;26963;42.666;23.366;2023-04-10T09:48:12;95013.69;;;11.46;47.47
40205;BME280;26963;42.666;23.366;2023-04-10T09:50:39;94926.53;;;11.07;47.33
40205;BME280;26963;42.666;23.366;2023-04-10T09:53:09;94989.00;;;11.49;46.20
40205;BME280;26963;42.666;23.366;2023-04-10T09:55:35;94996.06;;;11.45;45.48
40205;BME280;26963;42.666;23.366;2023-04-10T09:58:03;94854.88;;;10.57;45.28
40205;BME280;26963;42.666;23.366;2023-04-10T10:00:29;94951.78;;;11.34;44.71
40205;BME280;26963;42.666;23.366;2023-04-10T10:02:56;94987.31;;;11.67;44.77
40205;BME280;26963;42.666;23.366;2023-04-10T10:05:24;94945.84;;;11.51;44.27
40205;BME280;26963;42.666;23.366;2023-04-10T10:07:56;94993.88;;;11.89;43.61
40205;BME280;26963;42.666;23.366;2023-04-10T10:10:23;94931.91;;;11.35;43.75
40205;BME280;26963;42.666;23.366;2023-04-10T10:12:52;94990.72;;;11.73;43.74
40205;BME280;26963;42.666;23.366;2023-04-10T10:15:35;94982.38;;;11.74;44.26
40205;BME280;26963;42.666;23.366;2023-04-10T10:18:06;94979.78;;;11.83;43.82
40205;BME280;26963;42.666;23.366;2023-04-10T10:20:35;94978.59;;;11.89;43.91
40205;BME280;26963;42.666;23.366;2023-04-10T10:23:06;94968.47;;;12.00;43.47
40205;BME280;26963;42.666;23.366;2023-04-10T10:25:34;94947.31;;;11.99;43.45
40205;BME280;26963;42.666;23.366;2023-04-10T10:28:04;94974.97;;;12.36;43.48
40205;BME280;26963;42.666;23.366;2023-04-10T10:30:33;94949.09;;;12.40;42.74
40205;BME280;26963;42.666;23.366;2023-04-10T10:33:01;94929.09;;;12.23;42.52
40205;BME280;26963;42.666;23.366;2023-04-10T10:35:30;94959.13;;;12.48;42.46
40205;BME280;26963;42.666;23.366;2023-04-10T10:37:59;94965.34;;;12.57;41.91
40205;BME280;26963;42.666;23.366;2023-04-10T10:40:40;94896.31;;;12.27;41.92
40205;BME280;26963;42.666;23.366;2023-04-10T10:46:03;94939.69;;;12.65;42.18
40205;BME280;26963;42.666;23.366;2023-04-10T10:48:31;94862.16;;;12.18;42.07
40205;BME280;26963;42.666;23.366;2023-04-10T10:51:00;94919.31;;;12.64;41.91
40205;BME280;26963;42.666;23.366;2023-04-10T10:53:38;94924.63;;;12.78;41.54
40205;BME280;26963;42.666;23.366;2023-04-10T10:56:34;94923.19;;;13.03;41.36
40205;BME280;26963;42.666;23.366;2023-04-10T10:59:00;94809.38;;;12.28;40.74
40205;BME280;26963;42.666;23.366;2023-04-10T11:01:26;94908.31;;;12.97;41.28
40205;BME280;26963;42.666;23.366;2023-04-10T11:03:52;94901.66;;;12.95;40.98
40205;BME280;26963;42.666;23.366;2023-04-10T11:06:19;94834.34;;;12.60;40.81
40205;BME280;26963;42.666;23.366;2023-04-10T11:08:49;94878.72;;;13.20;40.80
40205;BME280;26963;42.666;23.366;2023-04-10T11:16:41;94892.84;;;13.83;39.99
40205;BME280;26963;42.666;23.366;2023-04-10T11:19:11;94871.91;;;13.63;38.36
40205;BME280;26963;42.666;23.366;2023-04-10T11:22:03;94900.53;;;13.59;38.46
40205;BME280;26963;42.666;23.366;2023-04-10T11:27:41;94819.78;;;12.29;41.25
40205;BME280;26963;42.666;23.366;2023-04-10T11:30:35;94880.69;;;12.51;42.63
40205;BME280;26963;42.666;23.366;2023-04-10T11:33:02;94853.38;;;12.27;43.38
40205;BME280;26963;42.666;23.366;2023-04-10T11:35:29;94879.44;;;12.12;43.06
40205;BME280;26963;42.666;23.366;2023-04-10T11:38:25;94890.69;;;12.14;43.30
40205;BME280;26963;42.666;23.366;2023-04-10T11:40:59;94838.41;;;11.75;42.73
40205;BME280;26963;42.666;23.366;2023-04-10T11:43:26;94879.88;;;12.05;43.25
40205;BME280;26963;42.666;23.366;2023-04-10T11:46:01;94834.41;;;11.86;42.62
40205;BME280;26963;42.666;23.366;2023-04-10T11:48:31;94889.41;;;12.34;42.37
40205;BME280;26963;42.666;23.366;2023-04-10T11:50:56;94880.44;;;12.16;42.00
40205;BME280;26963;42.666;23.366;2023-04-10T11:53:25;94797.53;;;11.69;42.79
40205;BME280;26963;42.666;23.366;2023-04-10T11:55:51;94863.78;;;11.91;43.34
40205;BME280;26963;42.666;23.366;2023-04-10T11:58:33;94891.75;;;12.13;43.20
40205;BME280;26963;42.666;23.366;2023-04-10T12:01:00;94888.72;;;12.06;42.70
40205;BME280;26963;42.666;23.366;2023-04-10T12:03:42;94885.47;;;11.67;42.76
40205;BME280;26963;42.666;23.366;2023-04-10T12:06:10;94877.84;;;11.61;43.70
40205;BME280;26963;42.666;23.366;2023-04-10T12:08:40;94882.47;;;11.83;43.39
40205;BME280;26963;42.666;23.366;2023-04-10T12:11:07;94864.25;;;11.71;43.88
40205;BME280;26963;42.666;23.366;2023-04-10T12:13:33;94878.94;;;11.73;45.73
40205;BME280;26963;42.666;23.366;2023-04-10T12:16:02;94871.91;;;11.08;48.71
40205;BME280;26963;42.666;23.366;2023-04-10T12:18:29;94893.56;;;10.79;51.72
40205;BME280;26963;42.666;23.366;2023-04-10T12:21:00;94881.56;;;10.43;53.14
40205;BME280;26963;42.666;23.366;2023-04-10T12:23:27;94865.41;;;10.15;53.96
40205;BME280;26963;42.666;23.366;2023-04-10T12:26:15;94907.16;;;10.49;53.86
40205;BME280;26963;42.666;23.366;2023-04-10T12:28:52;94896.28;;;10.59;54.23
40205;BME280;26963;42.666;23.366;2023-04-10T12:31:18;94890.31;;;10.49;55.63
40205;BME280;26963;42.666;23.366;2023-04-10T12:33:52;94883.81;;;10.36;56.64
40205;BME280;26963;42.666;23.366;2023-04-10T12:36:23;94898.41;;;10.43;57.27
40205;BME280;26963;42.666;23.366;2023-04-10T12:38:49;94889.09;;;10.41;57.27
40205;BME280;26963;42.666;23.366;2023-04-10T12:41:21;94881.84;;;10.60;55.59
40205;BME280;26963;42.666;23.366;2023-04-10T12:43:48;94888.50;;;10.77;53.51
40205;BME280;26963;42.666;23.366;2023-04-10T12:46:30;94884.06;;;10.86;51.10
40205;BME280;26963;42.666;23.366;2023-04-10T12:48:55;94823.34;;;10.54;49.55
40205;BME280;26963;42.666;23.366;2023-04-10T12:51:44;94897.16;;;11.02;49.98
40205;BME280;26963;42.666;23.366;2023-04-10T12:54:10;94878.22;;;10.98;50.66
40205;BME280;26963;42.666;23.366;2023-04-10T12:56:43;94864.63;;;10.81;51.76
40205;BME280;26963;42.666;23.366;2023-04-10T12:59:09;94875.75;;;11.02;52.34
40205;BME280;26963;42.666;23.366;2023-04-10T13:01:38;94837.19;;;10.89;51.53
40205;BME280;26963;42.666;23.366;2023-04-10T13:04:04;94882.13;;;11.34;51.53
40205;BME280;26963;42.666;23.366;2023-04-10T13:06:30;94881.31;;;11.47;51.18
40205;BME280;26963;42.666;23.366;2023-04-10T13:08:55;94791.47;;;11.13;50.78
40205;BME280;26963;42.666;23.366;2023-04-10T13:11:21;94862.81;;;11.87;49.87
40205;BME280;26963;42.666;23.366;2023-04-10T13:13:48;94854.06;;;11.96;49.67
40205;BME280;26963;42.666;23.366;2023-04-10T13:16:15;94852.03;;;12.15;49.29
40205;BME280;26963;42.666;23.366;2023-04-10T13:18:41;94795.28;;;11.85;48.50
40205;BME280;26963;42.666;23.366;2023-04-10T13:21:06;94849.38;;;12.38;48.37
40205;BME280;26963;42.666;23.366;2023-04-10T13:23:32;94812.06;;;12.28;48.33
40205;BME280;26963;42.666;23.366;2023-04-10T13:26:01;94851.16;;;12.74;47.98
40205;BME280;26963;42.666;23.366;2023-04-10T13:28:27;94841.13;;;12.88;48.05